sensor_id;sensor_type;location;lat;lon;timestamp;temperature;humidity
71304;DHT22;59091;47.446;19.148;2023-07-29T00:01:15;23.70;64.40
71304;DHT22;59091;47.446;19.148;2023-07-29T00:03:40;23.64;64.52
71304;DHT22;59091;47.446;19.148;2023-07-29T00:06:06;23.63;64.66
71304;DHT22;59091;47.446;19.148;2023-07-29T00:08:31;23.64;64.65
71304;DHT22;59091;47.446;19.148;2023-07-29T00:10:57;23.63;64.76
71304;DHT22;59091;47.446;19.148;2023-07-29T00:13:22;23.62;64.81
71304;DHT22;59091;47.446;19.148;2023-07-29T00:15:48;23.56;64.95
71304;DHT22;59091;47.446;19.148;2023-07-29T00:18:13;23.57;64.94
71304;DHT22;59091;47.446;19.148;2023-07-29T00:20:39;23.53;65.00
71304;DHT22;59091;47.446;19.148;2023-07-29T00:23:04;23.52;65.07
71304;DHT22;59091;47.446;19.148;2023-07-29T00:25:30;23.47;65.29
71304;DHT22;59091;47.446;19.148;2023-07-29T00:27:56;23.49;65.37
71304;DHT22;59091;47.446;19.148;2023-07-29T00:30:21;23.47;65.74
71304;DHT22;59091;47.446;19.148;2023-07-29T00:32:47;23.42;65.94
71304;DHT22;59091;47.446;19.148;2023-07-29T00:35:12;23.42;66.09
71304;DHT22;59091;47.446;19.148;2023-07-29T00:37:38;23.36;66.24
71304;DHT22;59091;47.446;19.148;2023-07-29T00:40:13;23.38;65.94
71304;DHT22;59091;47.446;19.148;2023-07-29T00:42:40;23.30;66.03
71304;DHT22;59091;47.446;19.148;2023-07-29T00:45:06;23.32;66.12
71304;DHT22;59091;47.446;19.148;2023-07-29T00:47:33;23.27;66.12
71304;DHT22;59091;47.446;19.148;2023-07-29T00:49:58;23.24;65.98
71304;DHT22;59091;47.446;19.148;2023-07-29T00:52:23;23.22;66.13
71304;DHT22;59091;47.446;19.148;2023-07-29T00:54:49;23.16;66.21
71304;DHT22;59091;47.446;19.148;2023-07-29T00:57:15;23.16;66.26
71304;DHT22;59091;47.446;19.148;2023-07-29T00:59:41;23.11;66.23
71304;DHT22;59091;47.446;19.148;2023-07-29T01:02:08;23.11;66.27
71304;DHT22;59091;47.446;19.148;2023-07-29T01:04:33;23.06;66.40
71304;DHT22;59091;47.446;19.148;2023-07-29T01:07:07;23.03;66.38
71304;DHT22;59091;47.446;19.148;2023-07-29T01:12:22;22.96;66.56
71304;DHT22;59091;47.446;19.148;2023-07-29T01:14:57;22.95;66.70
71304;DHT22;59091;47.446;19.148;2023-07-29T01:17:36;22.90;66.61
71304;DHT22;59091;47.446;19.148;2023-07-29T01:20:12;22.87;66.80
71304;DHT22;59091;47.446;19.148;2023-07-29T01:22:38;22.85;67.03
71304;DHT22;59091;47.446;19.148;2023-07-29T01:25:05;22.79;67.02
71304;DHT22;59091;47.446;19.148;2023-07-29T01:27:31;22.79;67.07
71304;DHT22;59091;47.446;19.148;2023-07-29T01:29:57;22.82;67.10
71304;DHT22;59091;47.446;19.148;2023-07-29T01:35:03;22.69;67.28
71304;DHT22;59091;47.446;19.148;2023-07-29T01:37:33;22.69;67.28
71304;DHT22;59091;47.446;19.148;2023-07-29T01:40:00;22.65;67.34
71304;DHT22;59091;47.446;19.148;2023-07-29T01:42:28;22.62;67.53
71304;DHT22;59091;47.446;19.148;2023-07-29T01:44:54;22.61;67.47
71304;DHT22;59091;47.446;19.148;2023-07-29T01:47:20;22.58;67.57
71304;DHT22;59091;47.446;19.148;2023-07-29T01:49:47;22.54;67.64
71304;DHT22;59091;47.446;19.148;2023-07-29T01:52:12;22.52;67.72
71304;DHT22;59091;47.446;19.148;2023-07-29T01:54:38;22.50;67.71
71304;DHT22;59091;47.446;19.148;2023-07-29T01:57:03;22.48;67.80
71304;DHT22;59091;47.446;19.148;2023-07-29T01:59:29;22.47;67.81
71304;DHT22;59091;47.446;19.148;2023-07-29T02:01:54;22.44;67.94
71304;DHT22;59091;47.446;19.148;2023-07-29T02:04:20;22.44;67.88
71304;DHT22;59091;47.446;19.148;2023-07-29T02:06:45;22.40;67.88
71304;DHT22;59091;47.446;19.148;2023-07-29T02:09:10;22.36;67.90
71304;DHT22;59091;47.446;19.148;2023-07-29T02:11:36;22.34;68.19
71304;DHT22;59091;47.446;19.148;2023-07-29T02:14:01;22.29;68.24
71304;DHT22;59091;47.446;19.148;2023-07-29T02:16:27;22.27;68.37
71304;DHT22;59091;47.446;19.148;2023-07-29T02:18:52;22.29;68.39
71304;DHT22;59091;47.446;19.148;2023-07-29T02:21:17;22.25;68.43
71304;DHT22;59091;47.446;19.148;2023-07-29T02:23:43;22.24;68.41
71304;DHT22;59091;47.446;19.148;2023-07-29T02:26:08;22.20;68.65
71304;DHT22;59091;47.446;19.148;2023-07-29T02:28:34;22.18;68.69
71304;DHT22;59091;47.446;19.148;2023-07-29T02:31:16;22.18;68.57
71304;DHT22;59091;47.446;19.148;2023-07-29T02:33:44;22.17;68.80
71304;DHT22;59091;47.446;19.148;2023-07-29T02:36:11;22.13;68.83
71304;DHT22;59091;47.446;19.148;2023-07-29T02:38:37;22.10;68.88
71304;DHT22;59091;47.446;19.148;2023-07-29T02:41:02;22.10;68.97
71304;DHT22;59091;47.446;19.148;2023-07-29T02:43:28;22.09;68.96
71304;DHT22;59091;47.446;19.148;2023-07-29T02:45:53;22.04;69.19
71304;DHT22;59091;47.446;19.148;2023-07-29T02:48:19;22.04;69.14
71304;DHT22;59091;47.446;19.148;2023-07-29T02:50:44;22.04;69.17
71304;DHT22;59091;47.446;19.148;2023-07-29T02:53:10;22.00;69.09
71304;DHT22;59091;47.446;19.148;2023-07-29T02:55:40;21.99;69.04
71304;DHT22;59091;47.446;19.148;2023-07-29T02:58:06;21.97;69.12
71304;DHT22;59091;47.446;19.148;2023-07-29T03:00:32;21.97;68.98
71304;DHT22;59091;47.446;19.148;2023-07-29T03:02:58;21.93;69.14
71304;DHT22;59091;47.446;19.148;2023-07-29T03:05:24;21.92;69.16
71304;DHT22;59091;47.446;19.148;2023-07-29T03:07:49;21.90;69.22
71304;DHT22;59091;47.446;19.148;2023-07-29T03:10:14;21.88;69.42
71304;DHT22;59091;47.446;19.148;2023-07-29T03:12:40;21.88;69.34
71304;DHT22;59091;47.446;19.148;2023-07-29T03:15:06;21.88;69.34
71304;DHT22;59091;47.446;19.148;2023-07-29T03:17:31;21.83;69.20
71304;DHT22;59091;47.446;19.148;2023-07-29T03:19:57;21.82;69.27
71304;DHT22;59091;47.446;19.148;2023-07-29T03:22:22;21.80;69.37
71304;DHT22;59091;47.446;19.148;2023-07-29T03:24:48;21.79;69.51
71304;DHT22;59091;47.446;19.148;2023-07-29T03:27:13;21.79;69.47
71304;DHT22;59091;47.446;19.148;2023-07-29T03:29:41;21.80;69.46
71304;DHT22;59091;47.446;19.148;2023-07-29T03:32:06;21.78;69.21
71304;DHT22;59091;47.446;19.148;2023-07-29T03:34:32;21.76;69.29
71304;DHT22;59091;47.446;19.148;2023-07-29T03:36:58;21.73;69.36
71304;DHT22;59091;47.446;19.148;2023-07-29T03:39:24;21.70;69.44
71304;DHT22;59091;47.446;19.148;2023-07-29T03:41:49;21.67;69.63
71304;DHT22;59091;47.446;19.148;2023-07-29T03:44:14;21.62;69.60
71304;DHT22;59091;47.446;19.148;2023-07-29T03:46:40;21.56;69.94
71304;DHT22;59091;47.446;19.148;2023-07-29T03:49:05;21.51;70.16
71304;DHT22;59091;47.446;19.148;2023-07-29T03:51:31;21.53;70.15
71304;DHT22;59091;47.446;19.148;2023-07-29T03:53:56;21.55;70.23
71304;DHT22;59091;47.446;19.148;2023-07-29T03:56:22;21.56;70.27
71304;DHT22;59091;47.446;19.148;2023-07-29T03:58:47;21.56;70.34
71304;DHT22;59091;47.446;19.148;2023-07-29T04:01:14;21.62;70.35
71304;DHT22;59091;47.446;19.148;2023-07-29T04:03:40;21.66;70.17
71304;DHT22;59091;47.446;19.148;2023-07-29T04:06:05;21.70;70.09
71304;DHT22;59091;47.446;19.148;2023-07-29T04:08:31;21.75;70.29
71304;DHT22;59091;47.446;19.148;2023-07-29T04:10:56;21.76;70.54
71304;DHT22;59091;47.446;19.148;2023-07-29T04:13:22;21.76;70.68
71304;DHT22;59091;47.446;19.148;2023-07-29T04:15:47;21.78;70.63
71304;DHT22;59091;47.446;19.148;2023-07-29T04:18:13;21.79;70.70
71304;DHT22;59091;47.446;19.148;2023-07-29T04:20:38;21.82;70.50
71304;DHT22;59091;47.446;19.148;2023-07-29T04:23:03;21.88;70.36
71304;DHT22;59091;47.446;19.148;2023-07-29T04:25:29;21.93;70.29
71304;DHT22;59091;47.446;19.148;2023-07-29T04:27:54;21.99;70.07
71304;DHT22;59091;47.446;19.148;2023-07-29T04:30:20;22.10;69.76
71304;DHT22;59091;47.446;19.148;2023-07-29T04:32:46;22.21;69.35
71304;DHT22;59091;47.446;19.148;2023-07-29T04:35:13;22.33;69.02
71304;DHT22;59091;47.446;19.148;2023-07-29T04:37:40;22.48;68.78
71304;DHT22;59091;47.446;19.148;2023-07-29T04:40:08;22.64;68.34
71304;DHT22;59091;47.446;19.148;2023-07-29T04:42:33;22.78;67.90
71304;DHT22;59091;47.446;19.148;2023-07-29T04:44:59;22.94;67.29
71304;DHT22;59091;47.446;19.148;2023-07-29T04:47:24;23.09;66.61
71304;DHT22;59091;47.446;19.148;2023-07-29T04:49:50;23.18;66.31
71304;DHT22;59091;47.446;19.148;2023-07-29T04:52:15;23.26;66.18
71304;DHT22;59091;47.446;19.148;2023-07-29T04:54:41;23.36;65.98
71304;DHT22;59091;47.446;19.148;2023-07-29T04:57:06;23.45;65.75
71304;DHT22;59091;47.446;19.148;2023-07-29T04:59:32;23.50;65.82
71304;DHT22;59091;47.446;19.148;2023-07-29T05:01:57;23.54;66.05
71304;DHT22;59091;47.446;19.148;2023-07-29T05:04:23;23.66;65.46
71304;DHT22;59091;47.446;19.148;2023-07-29T05:06:49;23.75;65.17
71304;DHT22;59091;47.446;19.148;2023-07-29T05:09:18;23.88;64.95
71304;DHT22;59091;47.446;19.148;2023-07-29T05:11:44;23.93;64.99
71304;DHT22;59091;47.446;19.148;2023-07-29T05:14:17;23.91;64.95
71304;DHT22;59091;47.446;19.148;2023-07-29T05:16:43;24.07;64.42
71304;DHT22;59091;47.446;19.148;2023-07-29T05:19:09;24.17;64.17
71304;DHT22;59091;47.446;19.148;2023-07-29T05:21:36;24.34;63.36
71304;DHT22;59091;47.446;19.148;2023-07-29T05:24:02;24.36;62.90
71304;DHT22;59091;47.446;19.148;2023-07-29T05:26:27;24.58;62.25
71304;DHT22;59091;47.446;19.148;2023-07-29T05:28:53;24.83;61.45
71304;DHT22;59091;47.446;19.148;2023-07-29T05:31:18;24.87;61.03
71304;DHT22;59091;47.446;19.148;2023-07-29T05:33:44;24.92;60.61
71304;DHT22;59091;47.446;19.148;2023-07-29T05:36:09;25.17;59.95
71304;DHT22;59091;47.446;19.148;2023-07-29T05:38:35;25.47;59.06
71304;DHT22;59091;47.446;19.148;2023-07-29T05:41:00;25.58;58.47
71304;DHT22;59091;47.446;19.148;2023-07-29T05:43:27;25.82;57.80
71304;DHT22;59091;47.446;19.148;2023-07-29T05:45:52;26.01;57.01
71304;DHT22;59091;47.446;19.148;2023-07-29T05:48:19;25.96;55.96
71304;DHT22;59091;47.446;19.148;2023-07-29T05:50:45;25.95;56.80
71304;DHT22;59091;47.446;19.148;2023-07-29T05:53:10;26.12;56.48
71304;DHT22;59091;47.446;19.148;2023-07-29T05:55:36;26.39;56.47
71304;DHT22;59091;47.446;19.148;2023-07-29T05:58:01;26.22;55.85
71304;DHT22;59091;47.446;19.148;2023-07-29T06:00:27;26.35;55.58
71304;DHT22;59091;47.446;19.148;2023-07-29T06:02:52;26.64;54.33
71304;DHT22;59091;47.446;19.148;2023-07-29T06:05:17;26.82;54.46
71304;DHT22;59091;47.446;19.148;2023-07-29T06:07:43;26.91;54.94
71304;DHT22;59091;47.446;19.148;2023-07-29T06:10:12;26.98;54.44
71304;DHT22;59091;47.446;19.148;2023-07-29T06:12:38;26.98;53.84
71304;DHT22;59091;47.446;19.148;2023-07-29T06:15:04;27.10;53.95
71304;DHT22;59091;47.446;19.148;2023-07-29T06:17:30;27.24;53.60
71304;DHT22;59091;47.446;19.148;2023-07-29T06:19:55;27.31;53.30
71304;DHT22;59091;47.446;19.148;2023-07-29T06:22:21;27.48;52.64
71304;DHT22;59091;47.446;19.148;2023-07-29T06:24:46;27.27;52.75
71304;DHT22;59091;47.446;19.148;2023-07-29T06:27:12;26.97;52.60
71304;DHT22;59091;47.446;19.148;2023-07-29T06:29:37;27.21;51.76
71304;DHT22;59091;47.446;19.148;2023-07-29T06:32:03;27.25;51.52
71304;DHT22;59091;47.446;19.148;2023-07-29T06:34:28;27.33;51.39
71304;DHT22;59091;47.446;19.148;2023-07-29T06:36:54;27.45;50.77
71304;DHT22;59091;47.446;19.148;2023-07-29T06:39:19;27.59;50.79
71304;DHT22;59091;47.446;19.148;2023-07-29T06:41:45;27.86;50.86
71304;DHT22;59091;47.446;19.148;2023-07-29T06:44:10;28.16;50.34
71304;DHT22;59091;47.446;19.148;2023-07-29T06:46:35;28.19;49.46
71304;DHT22;59091;47.446;19.148;2023-07-29T06:49:01;28.35;48.83
71304;DHT22;59091;47.446;19.148;2023-07-29T06:51:26;28.43;48.94
71304;DHT22;59091;47.446;19.148;2023-07-29T06:53:54;28.65;48.82
71304;DHT22;59091;47.446;19.148;2023-07-29T06:56:19;28.81;48.59
71304;DHT22;59091;47.446;19.148;2023-07-29T06:58:45;29.12;48.68
71304;DHT22;59091;47.446;19.148;2023-07-29T07:01:10;29.19;47.57
71304;DHT22;59091;47.446;19.148;2023-07-29T07:03:36;29.19;47.32
71304;DHT22;59091;47.446;19.148;2023-07-29T07:06:01;29.30;46.99
71304;DHT22;59091;47.446;19.148;2023-07-29T07:08:27;29.30;47.80
71304;DHT22;59091;47.446;19.148;2023-07-29T07:10:52;29.46;47.42
71304;DHT22;59091;47.446;19.148;2023-07-29T07:13:17;29.83;46.89
71304;DHT22;59091;47.446;19.148;2023-07-29T07:15:43;30.07;45.42
71304;DHT22;59091;47.446;19.148;2023-07-29T07:18:08;30.37;46.97
71304;DHT22;59091;47.446;19.148;2023-07-29T07:20:34;30.61;45.73
71304;DHT22;59091;47.446;19.148;2023-07-29T07:23:00;30.74;44.74
71304;DHT22;59091;47.446;19.148;2023-07-29T07:25:25;31.13;43.85
71304;DHT22;59091;47.446;19.148;2023-07-29T07:27:51;31.31;42.92
71304;DHT22;59091;47.446;19.148;2023-07-29T07:30:16;31.60;41.49
71304;DHT22;59091;47.446;19.148;2023-07-29T07:32:41;31.74;41.35
71304;DHT22;59091;47.446;19.148;2023-07-29T07:35:07;31.95;42.29
71304;DHT22;59091;47.446;19.148;2023-07-29T07:37:33;32.20;42.32
71304;DHT22;59091;47.446;19.148;2023-07-29T07:39:58;32.04;39.33
71304;DHT22;59091;47.446;19.148;2023-07-29T07:42:24;32.18;39.15
71304;DHT22;59091;47.446;19.148;2023-07-29T07:44:49;31.94;41.81
71304;DHT22;59091;47.446;19.148;2023-07-29T07:47:14;32.24;40.02
71304;DHT22;59091;47.446;19.148;2023-07-29T07:49:40;32.65;39.31
71304;DHT22;59091;47.446;19.148;2023-07-29T07:52:05;33.02;38.53
71304;DHT22;59091;47.446;19.148;2023-07-29T07:54:31;32.83;38.78
71304;DHT22;59091;47.446;19.148;2023-07-29T07:56:56;32.63;38.73
71304;DHT22;59091;47.446;19.148;2023-07-29T07:59:22;32.62;38.91
71304;DHT22;59091;47.446;19.148;2023-07-29T08:01:47;33.02;37.73
71304;DHT22;59091;47.446;19.148;2023-07-29T08:04:13;33.43;37.67
71304;DHT22;59091;47.446;19.148;2023-07-29T08:06:38;33.58;38.34
71304;DHT22;59091;47.446;19.148;2023-07-29T08:09:04;33.72;36.73
71304;DHT22;59091;47.446;19.148;2023-07-29T08:11:30;33.90;37.23
71304;DHT22;59091;47.446;19.148;2023-07-29T08:13:55;33.92;36.47
71304;DHT22;59091;47.446;19.148;2023-07-29T08:16:21;33.77;36.71
71304;DHT22;59091;47.446;19.148;2023-07-29T08:18:46;33.80;36.70
71304;DHT22;59091;47.446;19.148;2023-07-29T08:21:12;33.67;37.18
71304;DHT22;59091;47.446;19.148;2023-07-29T08:23:38;33.87;36.74
71304;DHT22;59091;47.446;19.148;2023-07-29T08:26:04;34.29;36.13
71304;DHT22;59091;47.446;19.148;2023-07-29T08:28:32;34.35;35.54
71304;DHT22;59091;47.446;19.148;2023-07-29T08:30:58;34.73;34.94
71304;DHT22;59091;47.446;19.148;2023-07-29T08:33:24;34.83;35.00
71304;DHT22;59091;47.446;19.148;2023-07-29T08:35:49;35.26;34.66
71304;DHT22;59091;47.446;19.148;2023-07-29T08:38:15;35.68;34.29
71304;DHT22;59091;47.446;19.148;2023-07-29T08:40:46;35.75;35.01
71304;DHT22;59091;47.446;19.148;2023-07-29T08:43:16;35.81;34.40
71304;DHT22;59091;47.446;19.148;2023-07-29T08:45:44;35.30;33.81
71304;DHT22;59091;47.446;19.148;2023-07-29T08:48:10;35.71;31.02
71304;DHT22;59091;47.446;19.148;2023-07-29T08:50:37;35.93;32.41
71304;DHT22;59091;47.446;19.148;2023-07-29T08:53:06;36.11;32.72
71304;DHT22;59091;47.446;19.148;2023-07-29T08:55:32;36.43;31.16
71304;DHT22;59091;47.446;19.148;2023-07-29T08:57:59;36.64;31.35
71304;DHT22;59091;47.446;19.148;2023-07-29T09:00:26;36.73;31.32
71304;DHT22;59091;47.446;19.148;2023-07-29T09:02:52;36.36;32.12
71304;DHT22;59091;47.446;19.148;2023-07-29T09:05:18;36.43;32.51
71304;DHT22;59091;47.446;19.148;2023-07-29T09:07:44;36.09;32.15
71304;DHT22;59091;47.446;19.148;2023-07-29T09:10:10;36.09;32.17
71304;DHT22;59091;47.446;19.148;2023-07-29T09:12:36;36.03;33.29
71304;DHT22;59091;47.446;19.148;2023-07-29T09:15:01;35.86;32.75
71304;DHT22;59091;47.446;19.148;2023-07-29T09:17:33;35.65;33.28
71304;DHT22;59091;47.446;19.148;2023-07-29T09:19:59;35.45;34.64
71304;DHT22;59091;47.446;19.148;2023-07-29T09:22:26;35.24;33.03
71304;DHT22;59091;47.446;19.148;2023-07-29T09:24:52;35.03;33.19
71304;DHT22;59091;47.446;19.148;2023-07-29T09:27:25;34.82;31.83
71304;DHT22;59091;47.446;19.148;2023-07-29T09:29:52;34.41;32.82
71304;DHT22;59091;47.446;19.148;2023-07-29T09:32:22;34.36;33.33
71304;DHT22;59091;47.446;19.148;2023-07-29T09:34:48;34.15;33.05
71304;DHT22;59091;47.446;19.148;2023-07-29T09:37:21;34.11;34.10
71304;DHT22;59091;47.446;19.148;2023-07-29T09:39:47;33.46;35.52
71304;DHT22;59091;47.446;19.148;2023-07-29T09:42:20;33.51;34.98
71304;DHT22;59091;47.446;19.148;2023-07-29T09:44:49;33.84;35.01
71304;DHT22;59091;47.446;19.148;2023-07-29T09:49:46;33.54;34.44
71304;DHT22;59091;47.446;19.148;2023-07-29T09:52:14;33.23;34.50
71304;DHT22;59091;47.446;19.148;2023-07-29T09:54:42;33.27;33.79
71304;DHT22;59091;47.446;19.148;2023-07-29T09:57:07;33.50;36.94
71304;DHT22;59091;47.446;19.148;2023-07-29T09:59:36;33.58;34.99
71304;DHT22;59091;47.446;19.148;2023-07-29T10:02:01;33.64;34.28
71304;DHT22;59091;47.446;19.148;2023-07-29T10:04:28;33.82;35.31
71304;DHT22;59091;47.446;19.148;2023-07-29T10:06:54;33.75;34.35
71304;DHT22;59091;47.446;19.148;2023-07-29T10:09:22;33.62;35.53
71304;DHT22;59091;47.446;19.148;2023-07-29T10:11:49;33.10;34.74
71304;DHT22;59091;47.446;19.148;2023-07-29T10:14:16;32.51;35.21
71304;DHT22;59091;47.446;19.148;2023-07-29T10:16:43;32.24;35.35
71304;DHT22;59091;47.446;19.148;2023-07-29T10:19:10;32.45;35.40
71304;DHT22;59091;47.446;19.148;2023-07-29T10:21:39;32.76;35.36
71304;DHT22;59091;47.446;19.148;2023-07-29T10:24:09;33.00;35.16
71304;DHT22;59091;47.446;19.148;2023-07-29T10:26:38;32.99;34.44
71304;DHT22;59091;47.446;19.148;2023-07-29T10:29:07;33.19;34.43
71304;DHT22;59091;47.446;19.148;2023-07-29T10:31:35;33.10;33.72
71304;DHT22;59091;47.446;19.148;2023-07-29T10:34:02;33.24;33.93
71304;DHT22;59091;47.446;19.148;2023-07-29T10:36:28;33.43;35.20
71304;DHT22;59091;47.446;19.148;2023-07-29T10:38:54;33.24;35.06
71304;DHT22;59091;47.446;19.148;2023-07-29T10:41:20;33.21;35.44
71304;DHT22;59091;47.446;19.148;2023-07-29T10:43:45;33.29;34.42
71304;DHT22;59091;47.446;19.148;2023-07-29T10:46:18;33.61;33.98
71304;DHT22;59091;47.446;19.148;2023-07-29T10:48:55;33.80;33.86
71304;DHT22;59091;47.446;19.148;2023-07-29T10:51:28;34.08;34.09
71304;DHT22;59091;47.446;19.148;2023-07-29T10:54:03;34.28;35.03
71304;DHT22;59091;47.446;19.148;2023-07-29T10:56:35;34.66;33.52
71304;DHT22;59091;47.446;19.148;2023-07-29T11:01:42;34.76;31.72
71304;DHT22;59091;47.446;19.148;2023-07-29T11:12:34;34.15;32.62
71304;DHT22;59091;47.446;19.148;2023-07-29T11:17:34;34.31;32.23
71304;DHT22;59091;47.446;19.148;2023-07-29T11:20:03;34.22;32.72
71304;DHT22;59091;47.446;19.148;2023-07-29T11:22:30;34.16;33.78
71304;DHT22;59091;47.446;19.148;2023-07-29T11:24:55;34.31;32.22
71304;DHT22;59091;47.446;19.148;2023-07-29T11:27:21;34.53;32.48
71304;DHT22;59091;47.446;19.148;2023-07-29T11:29:47;34.74;31.82
71304;DHT22;59091;47.446;19.148;2023-07-29T11:32:12;34.59;32.37
71304;DHT22;59091;47.446;19.148;2023-07-29T11:34:38;34.43;32.05
71304;DHT22;59091;47.446;19.148;2023-07-29T11:37:05;34.41;32.45
71304;DHT22;59091;47.446;19.148;2023-07-29T11:39:32;34.41;31.21
71304;DHT22;59091;47.446;19.148;2023-07-29T11:41:58;34.72;34.14
71304;DHT22;59091;47.446;19.148;2023-07-29T11:44:25;34.78;32.55
71304;DHT22;59091;47.446;19.148;2023-07-29T11:46:50;35.17;33.44
71304;DHT22;59091;47.446;19.148;2023-07-29T11:49:16;35.41;32.85
71304;DHT22;59091;47.446;19.148;2023-07-29T11:51:41;35.48;31.64
71304;DHT22;59091;47.446;19.148;2023-07-29T11:54:08;35.30;31.94
71304;DHT22;59091;47.446;19.148;2023-07-29T11:56:34;35.14;31.88
71304;DHT22;59091;47.446;19.148;2023-07-29T11:59:01;35.01;32.04
71304;DHT22;59091;47.446;19.148;2023-07-29T12:01:28;34.76;33.32
71304;DHT22;59091;47.446;19.148;2023-07-29T12:03:57;34.73;33.23
71304;DHT22;59091;47.446;19.148;2023-07-29T12:06:23;34.63;33.68
71304;DHT22;59091;47.446;19.148;2023-07-29T12:08:50;34.60;33.20
71304;DHT22;59091;47.446;19.148;2023-07-29T12:11:16;34.41;31.16
71304;DHT22;59091;47.446;19.148;2023-07-29T12:13:43;34.42;32.22
71304;DHT22;59091;47.446;19.148;2023-07-29T12:16:09;34.52;31.65
71304;DHT22;59091;47.446;19.148;2023-07-29T12:18:35;34.38;31.50
71304;DHT22;59091;47.446;19.148;2023-07-29T12:21:02;34.15;32.17
71304;DHT22;59091;47.446;19.148;2023-07-29T12:23:29;33.74;32.82
71304;DHT22;59091;47.446;19.148;2023-07-29T12:25:59;33.64;32.96
71304;DHT22;59091;47.446;19.148;2023-07-29T12:28:25;33.11;33.52
71304;DHT22;59091;47.446;19.148;2023-07-29T12:30:54;33.29;33.76
71304;DHT22;59091;47.446;19.148;2023-07-29T12:33:31;33.20;34.15
71304;DHT22;59091;47.446;19.148;2023-07-29T12:35:56;33.35;35.45
71304;DHT22;59091;47.446;19.148;2023-07-29T12:38:22;33.33;34.52
71304;DHT22;59091;47.446;19.148;2023-07-29T12:40:47;33.50;33.49
71304;DHT22;59091;47.446;19.148;2023-07-29T12:43:13;33.61;35.21
71304;DHT22;59091;47.446;19.148;2023-07-29T12:45:38;33.64;35.62
71304;DHT22;59091;47.446;19.148;2023-07-29T12:48:08;33.68;35.54
71304;DHT22;59091;47.446;19.148;2023-07-29T12:50:33;33.67;34.41
71304;DHT22;59091;47.446;19.148;2023-07-29T12:52:59;33.65;34.97
71304;DHT22;59091;47.446;19.148;2023-07-29T12:55:24;33.65;34.68
71304;DHT22;59091;47.446;19.148;2023-07-29T12:57:50;33.47;34.92
71304;DHT22;59091;47.446;19.148;2023-07-29T13:00:15;33.29;34.48
71304;DHT22;59091;47.446;19.148;2023-07-29T13:02:41;33.09;34.89
71304;DHT22;59091;47.446;19.148;2023-07-29T13:05:10;33.23;34.93
71304;DHT22;59091;47.446;19.148;2023-07-29T13:07:37;33.29;35.76
71304;DHT22;59091;47.446;19.148;2023-07-29T13:10:03;33.11;34.84
71304;DHT22;59091;47.446;19.148;2023-07-29T13:12:28;33.37;33.79
71304;DHT22;59091;47.446;19.148;2023-07-29T13:14:54;33.47;36.37
71304;DHT22;59091;47.446;19.148;2023-07-29T13:17:20;33.47;34.52
71304;DHT22;59091;47.446;19.148;2023-07-29T13:19:47;33.53;34.46
71304;DHT22;59091;47.446;19.148;2023-07-29T13:22:12;33.33;34.59
71304;DHT22;59091;47.446;19.148;2023-07-29T13:24:37;33.23;33.25
71304;DHT22;59091;47.446;19.148;2023-07-29T13:27:03;33.41;34.50
71304;DHT22;59091;47.446;19.148;2023-07-29T13:29:29;33.27;34.40
71304;DHT22;59091;47.446;19.148;2023-07-29T13:31:54;33.13;34.00
71304;DHT22;59091;47.446;19.148;2023-07-29T13:34:19;32.82;35.08
71304;DHT22;59091;47.446;19.148;2023-07-29T13:36:45;32.90;34.70
71304;DHT22;59091;47.446;19.148;2023-07-29T13:39:10;32.84;35.19
71304;DHT22;59091;47.446;19.148;2023-07-29T13:41:36;32.87;34.63
71304;DHT22;59091;47.446;19.148;2023-07-29T13:44:01;32.75;34.43
71304;DHT22;59091;47.446;19.148;2023-07-29T13:46:26;32.92;34.59
71304;DHT22;59091;47.446;19.148;2023-07-29T13:48:52;33.07;34.52
71304;DHT22;59091;47.446;19.148;2023-07-29T13:51:17;33.13;34.29
71304;DHT22;59091;47.446;19.148;2023-07-29T13:53:43;33.21;34.10
71304;DHT22;59091;47.446;19.148;2023-07-29T13:56:08;33.24;34.04
71304;DHT22;59091;47.446;19.148;2023-07-29T13:58:34;33.26;33.60
71304;DHT22;59091;47.446;19.148;2023-07-29T14:00:59;33.09;33.61
71304;DHT22;59091;47.446;19.148;2023-07-29T14:03:24;32.87;33.94
71304;DHT22;59091;47.446;19.148;2023-07-29T14:05:50;32.72;34.93
71304;DHT22;59091;47.446;19.148;2023-07-29T14:08:15;32.69;34.43
71304;DHT22;59091;47.446;19.148;2023-07-29T14:10:41;32.72;35.76
71304;DHT22;59091;47.446;19.148;2023-07-29T14:13:06;32.87;35.47
71304;DHT22;59091;47.446;19.148;2023-07-29T14:15:31;33.06;36.01
71304;DHT22;59091;47.446;19.148;2023-07-29T14:18:00;33.03;34.09
71304;DHT22;59091;47.446;19.148;2023-07-29T14:20:27;33.16;33.96
71304;DHT22;59091;47.446;19.148;2023-07-29T14:22:53;33.14;33.87
71304;DHT22;59091;47.446;19.148;2023-07-29T14:25:18;33.17;33.89
71304;DHT22;59091;47.446;19.148;2023-07-29T14:27:44;33.19;34.08
71304;DHT22;59091;47.446;19.148;2023-07-29T14:30:09;33.10;33.71
71304;DHT22;59091;47.446;19.148;2023-07-29T14:32:35;33.16;34.07
71304;DHT22;59091;47.446;19.148;2023-07-29T14:35:01;33.03;34.00
71304;DHT22;59091;47.446;19.148;2023-07-29T14:37:30;32.98;34.07
71304;DHT22;59091;47.446;19.148;2023-07-29T14:39:57;32.78;34.14
71304;DHT22;59091;47.446;19.148;2023-07-29T14:42:22;32.63;34.59
71304;DHT22;59091;47.446;19.148;2023-07-29T14:44:48;32.58;34.07
71304;DHT22;59091;47.446;19.148;2023-07-29T14:47:13;32.52;34.41
71304;DHT22;59091;47.446;19.148;2023-07-29T14:49:39;32.49;34.62
71304;DHT22;59091;47.446;19.148;2023-07-29T14:52:05;32.35;35.09
71304;DHT22;59091;47.446;19.148;2023-07-29T14:54:31;32.29;35.45
71304;DHT22;59091;47.446;19.148;2023-07-29T14:56:56;32.33;35.65
71304;DHT22;59091;47.446;19.148;2023-07-29T14:59:22;32.36;35.69
71304;DHT22;59091;47.446;19.148;2023-07-29T15:01:47;32.29;35.68
71304;DHT22;59091;47.446;19.148;2023-07-29T15:04:12;32.24;35.92
71304;DHT22;59091;47.446;19.148;2023-07-29T15:06:38;32.25;35.50
71304;DHT22;59091;47.446;19.148;2023-07-29T15:09:04;32.36;35.95
71304;DHT22;59091;47.446;19.148;2023-07-29T15:11:30;32.43;35.61
71304;DHT22;59091;47.446;19.148;2023-07-29T15:13:58;32.53;35.90
71304;DHT22;59091;47.446;19.148;2023-07-29T15:16:24;32.31;35.46
71304;DHT22;59091;47.446;19.148;2023-07-29T15:18:50;32.33;36.59
71304;DHT22;59091;47.446;19.148;2023-07-29T15:21:15;32.51;36.01
71304;DHT22;59091;47.446;19.148;2023-07-29T15:23:41;32.55;35.94
71304;DHT22;59091;47.446;19.148;2023-07-29T15:26:07;32.75;36.28
71304;DHT22;59091;47.446;19.148;2023-07-29T15:28:32;32.75;35.59
71304;DHT22;59091;47.446;19.148;2023-07-29T15:30:58;32.78;36.89